sensor_id;sensor_type;location;lat;lon;timestamp;P1;durP1;ratioP1;P2;durP2;ratioP2
20619;SDS011;10469;42.720;23.252;2022-09-25T00:01:34;16.10;;;9.55;;
20619;SDS011;10469;42.720;23.252;2022-09-25T00:04:00;16.23;;;9.73;;
20619;SDS011;10469;42.720;23.252;2022-09-25T00:06:26;15.63;;;9.75;;
20619;SDS011;10469;42.720;23.252;2022-09-25T00:08:53;15.68;;;9.73;;
20619;SDS011;10469;42.720;23.252;2022-09-25T00:11:23;17.40;;;9.75;;
20619;SDS011;10469;42.720;23.252;2022-09-25T00:13:52;15.55;;;9.55;;
20619;SDS011;10469;42.720;23.252;2022-09-25T00:16:22;15.43;;;9.43;;
20619;SDS011;10469;42.720;23.252;2022-09-25T00:18:49;14.65;;;9.07;;
20619;SDS011;10469;42.720;23.252;2022-09-25T00:21:34;12.57;;;9.32;;
20619;SDS011;10469;42.720;23.252;2022-09-25T00:24:01;16.35;;;10.00;;
20619;SDS011;10469;42.720;23.252;2022-09-25T00:26:33;15.98;;;9.40;;
20619;SDS011;10469;42.720;23.252;2022-09-25T00:29:00;14.80;;;9.80;;
20619;SDS011;10469;42.720;23.252;2022-09-25T00:31:27;14.02;;;9.73;;
20619;SDS011;10469;42.720;23.252;2022-09-25T00:33:55;18.02;;;10.77;;
20619;SDS011;10469;42.720;23.252;2022-09-25T00:36:22;13.20;;;9.65;;
20619;SDS011;10469;42.720;23.252;2022-09-25T00:38:48;17.33;;;9.75;;
20619;SDS011;10469;42.720;23.252;2022-09-25T00:41:15;17.65;;;9.63;;
20619;SDS011;10469;42.720;23.252;2022-09-25T00:43:47;16.05;;;10.32;;
20619;SDS011;10469;42.720;23.252;2022-09-25T00:49:31;15.82;;;10.27;;
20619;SDS011;10469;42.720;23.252;2022-09-25T00:51:54;18.88;;;10.98;;
20619;SDS011;10469;42.720;23.252;2022-09-25T00:54:25;15.82;;;10.73;;
20619;SDS011;10469;42.720;23.252;2022-09-25T00:56:56;14.23;;;10.00;;
20619;SDS011;10469;42.720;23.252;2022-09-25T00:59:26;14.98;;;10.18;;
20619;SDS011;10469;42.720;23.252;2022-09-25T01:01:55;14.13;;;10.73;;
20619;SDS011;10469;42.720;23.252;2022-09-25T01:04:22;16.85;;;10.15;;
20619;SDS011;10469;42.720;23.252;2022-09-25T01:06:48;25.10;;;13.07;;
20619;SDS011;10469;42.720;23.252;2022-09-25T01:09:14;17.42;;;11.85;;
20619;SDS011;10469;42.720;23.252;2022-09-25T01:11:41;14.55;;;10.85;;
20619;SDS011;10469;42.720;23.252;2022-09-25T01:14:06;17.75;;;10.70;;
20619;SDS011;10469;42.720;23.252;2022-09-25T01:30:35;25.30;;;10.93;;
20619;SDS011;10469;42.720;23.252;2022-09-25T01:33:11;25.38;;;12.32;;
20619;SDS011;10469;42.720;23.252;2022-09-25T01:35:44;17.63;;;10.80;;
20619;SDS011;10469;42.720;23.252;2022-09-25T01:41:08;17.42;;;11.55;;
20619;SDS011;10469;42.720;23.252;2022-09-25T01:43:41;14.32;;;10.90;;
20619;SDS011;10469;42.720;23.252;2022-09-25T01:46:13;16.70;;;11.10;;
20619;SDS011;10469;42.720;23.252;2022-09-25T01:48:42;15.63;;;11.18;;
20619;SDS011;10469;42.720;23.252;2022-09-25T01:51:15;15.13;;;9.98;;
20619;SDS011;10469;42.720;23.252;2022-09-25T01:53:53;15.40;;;10.63;;
20619;SDS011;10469;42.720;23.252;2022-09-25T01:56:23;12.95;;;9.82;;
20619;SDS011;10469;42.720;23.252;2022-09-25T01:59:05;16.70;;;11.23;;
20619;SDS011;10469;42.720;23.252;2022-09-25T02:01:51;13.05;;;9.75;;
20619;SDS011;10469;42.720;23.252;2022-09-25T02:04:21;12.32;;;9.10;;
20619;SDS011;10469;42.720;23.252;2022-09-25T02:06:50;16.85;;;9.50;;
20619;SDS011;10469;42.720;23.252;2022-09-25T02:11:52;14.70;;;9.98;;
20619;SDS011;10469;42.720;23.252;2022-09-25T02:14:25;14.88;;;9.75;;
20619;SDS011;10469;42.720;23.252;2022-09-25T02:16:55;13.25;;;9.50;;
20619;SDS011;10469;42.720;23.252;2022-09-25T02:19:22;12.43;;;9.40;;
20619;SDS011;10469;42.720;23.252;2022-09-25T02:22:18;12.95;;;8.70;;
20619;SDS011;10469;42.720;23.252;2022-09-25T02:24:51;16.67;;;9.30;;
20619;SDS011;10469;42.720;23.252;2022-09-25T02:27:22;12.63;;;9.35;;
20619;SDS011;10469;42.720;23.252;2022-09-25T02:29:51;11.52;;;9.43;;
20619;SDS011;10469;42.720;23.252;2022-09-25T02:32:18;11.63;;;8.73;;
20619;SDS011;10469;42.720;23.252;2022-09-25T02:34:47;12.52;;;8.15;;
20619;SDS011;10469;42.720;23.252;2022-09-25T02:37:13;13.80;;;9.57;;
20619;SDS011;10469;42.720;23.252;2022-09-25T02:39:40;13.23;;;9.30;;
20619;SDS011;10469;42.720;23.252;2022-09-25T02:42:11;15.23;;;9.15;;
20619;SDS011;10469;42.720;23.252;2022-09-25T02:50:34;16.27;;;9.77;;
20619;SDS011;10469;42.720;23.252;2022-09-25T02:53:18;15.30;;;9.40;;
20619;SDS011;10469;42.720;23.252;2022-09-25T02:58:48;14.32;;;9.70;;
20619;SDS011;10469;42.720;23.252;2022-09-25T03:01:17;14.07;;;9.23;;
20619;SDS011;10469;42.720;23.252;2022-09-25T03:03:48;12.88;;;9.27;;
20619;SDS011;10469;42.720;23.252;2022-09-25T03:06:16;12.32;;;9.75;;
20619;SDS011;10469;42.720;23.252;2022-09-25T03:08:45;12.90;;;10.07;;
20619;SDS011;10469;42.720;23.252;2022-09-25T03:11:17;12.48;;;9.60;;
20619;SDS011;10469;42.720;23.252;2022-09-25T03:13:45;14.95;;;9.15;;
20619;SDS011;10469;42.720;23.252;2022-09-25T03:16:24;12.68;;;9.52;;
20619;SDS011;10469;42.720;23.252;2022-09-25T03:18:58;13.18;;;9.35;;
20619;SDS011;10469;42.720;23.252;2022-09-25T03:21:24;12.35;;;9.15;;
20619;SDS011;10469;42.720;23.252;2022-09-25T03:23:50;13.75;;;9.95;;
20619;SDS011;10469;42.720;23.252;2022-09-25T03:26:15;12.55;;;8.55;;
20619;SDS011;10469;42.720;23.252;2022-09-25T03:28:41;14.95;;;9.13;;
20619;SDS011;10469;42.720;23.252;2022-09-25T03:31:07;15.30;;;9.35;;
20619;SDS011;10469;42.720;23.252;2022-09-25T03:33:36;12.45;;;8.45;;
20619;SDS011;10469;42.720;23.252;2022-09-25T03:38:38;13.90;;;9.35;;
20619;SDS011;10469;42.720;23.252;2022-09-25T03:41:05;12.15;;;9.32;;
20619;SDS011;10469;42.720;23.252;2022-09-25T03:43:40;15.40;;;9.65;;
20619;SDS011;10469;42.720;23.252;2022-09-25T03:46:08;11.63;;;8.98;;
20619;SDS011;10469;42.720;23.252;2022-09-25T03:48:36;14.13;;;10.20;;
20619;SDS011;10469;42.720;23.252;2022-09-25T03:51:03;17.25;;;9.73;;
20619;SDS011;10469;42.720;23.252;2022-09-25T03:53:29;16.98;;;9.85;;
20619;SDS011;10469;42.720;23.252;2022-09-25T03:55:57;18.38;;;9.63;;
20619;SDS011;10469;42.720;23.252;2022-09-25T03:58:24;23.38;;;10.05;;
20619;SDS011;10469;42.720;23.252;2022-09-25T04:00:50;14.65;;;9.55;;
20619;SDS011;10469;42.720;23.252;2022-09-25T04:03:15;14.07;;;9.40;;
20619;SDS011;10469;42.720;23.252;2022-09-25T04:05:42;16.42;;;9.13;;
20619;SDS011;10469;42.720;23.252;2022-09-25T04:08:08;16.50;;;10.77;;
20619;SDS011;10469;42.720;23.252;2022-09-25T04:10:34;17.65;;;10.48;;
20619;SDS011;10469;42.720;23.252;2022-09-25T04:13:06;18.75;;;11.57;;
20619;SDS011;10469;42.720;23.252;2022-09-25T04:15:34;18.38;;;11.50;;
20619;SDS011;10469;42.720;23.252;2022-09-25T04:17:59;15.10;;;10.98;;
20619;SDS011;10469;42.720;23.252;2022-09-25T04:20:25;20.48;;;12.23;;
20619;SDS011;10469;42.720;23.252;2022-09-25T04:22:51;23.13;;;12.48;;
20619;SDS011;10469;42.720;23.252;2022-09-25T04:25:16;16.67;;;12.02;;
20619;SDS011;10469;42.720;23.252;2022-09-25T04:27:45;20.17;;;10.35;;
20619;SDS011;10469;42.720;23.252;2022-09-25T04:30:11;19.77;;;11.68;;
20619;SDS011;10469;42.720;23.252;2022-09-25T04:32:37;21.85;;;11.77;;
20619;SDS011;10469;42.720;23.252;2022-09-25T04:35:21;20.08;;;10.25;;
20619;SDS011;10469;42.720;23.252;2022-09-25T04:37:46;15.30;;;10.65;;
20619;SDS011;10469;42.720;23.252;2022-09-25T04:40:11;16.30;;;10.95;;
20619;SDS011;10469;42.720;23.252;2022-09-25T04:42:37;14.43;;;10.77;;
20619;SDS011;10469;42.720;23.252;2022-09-25T04:45:03;17.30;;;10.40;;
20619;SDS011;10469;42.720;23.252;2022-09-25T04:47:29;27.83;;;11.95;;
20619;SDS011;10469;42.720;23.252;2022-09-25T04:49:54;20.30;;;9.77;;
20619;SDS011;10469;42.720;23.252;2022-09-25T04:52:20;13.50;;;9.63;;
20619;SDS011;10469;42.720;23.252;2022-09-25T04:54:46;16.52;;;10.27;;
20619;SDS011;10469;42.720;23.252;2022-09-25T04:57:20;16.02;;;10.25;;
20619;SDS011;10469;42.720;23.252;2022-09-25T04:59:47;24.58;;;10.68;;
20619;SDS011;10469;42.720;23.252;2022-09-25T05:02:15;15.68;;;10.02;;
20619;SDS011;10469;42.720;23.252;2022-09-25T05:04:40;16.27;;;9.15;;
20619;SDS011;10469;42.720;23.252;2022-09-25T05:07:06;15.57;;;9.57;;
20619;SDS011;10469;42.720;23.252;2022-09-25T05:09:31;11.77;;;9.38;;
20619;SDS011;10469;42.720;23.252;2022-09-25T05:11:57;17.25;;;9.77;;
20619;SDS011;10469;42.720;23.252;2022-09-25T05:14:23;21.75;;;10.30;;
20619;SDS011;10469;42.720;23.252;2022-09-25T05:16:49;14.48;;;9.90;;
20619;SDS011;10469;42.720;23.252;2022-09-25T05:19:15;20.48;;;8.90;;
20619;SDS011;10469;42.720;23.252;2022-09-25T05:21:41;19.55;;;9.90;;
20619;SDS011;10469;42.720;23.252;2022-09-25T05:24:07;18.30;;;10.95;;
20619;SDS011;10469;42.720;23.252;2022-09-25T05:26:33;15.52;;;10.50;;
20619;SDS011;10469;42.720;23.252;2022-09-25T05:29:00;15.65;;;8.80;;
20619;SDS011;10469;42.720;23.252;2022-09-25T05:31:25;13.25;;;8.52;;
20619;SDS011;10469;42.720;23.252;2022-09-25T05:33:51;16.95;;;9.75;;
20619;SDS011;10469;42.720;23.252;2022-09-25T05:36:18;24.85;;;10.45;;
20619;SDS011;10469;42.720;23.252;2022-09-25T05:38:44;16.77;;;10.20;;
20619;SDS011;10469;42.720;23.252;2022-09-25T05:41:09;22.35;;;12.88;;
20619;SDS011;10469;42.720;23.252;2022-09-25T05:43:42;21.33;;;11.80;;
20619;SDS011;10469;42.720;23.252;2022-09-25T05:46:11;21.60;;;11.88;;
20619;SDS011;10469;42.720;23.252;2022-09-25T05:48:37;20.50;;;11.60;;
20619;SDS011;10469;42.720;23.252;2022-09-25T05:51:02;18.10;;;10.13;;
20619;SDS011;10469;42.720;23.252;2022-09-25T05:53:28;17.88;;;11.10;;
20619;SDS011;10469;42.720;23.252;2022-09-25T05:56:00;18.75;;;11.80;;
20619;SDS011;10469;42.720;23.252;2022-09-25T05:58:27;18.27;;;10.98;;
20619;SDS011;10469;42.720;23.252;2022-09-25T06:00:55;15.68;;;10.18;;
20619;SDS011;10469;42.720;23.252;2022-09-25T06:03:24;15.02;;;10.55;;
20619;SDS011;10469;42.720;23.252;2022-09-25T06:05:57;17.02;;;9.98;;
20619;SDS011;10469;42.720;23.252;2022-09-25T06:08:23;13.05;;;9.15;;
20619;SDS011;10469;42.720;23.252;2022-09-25T06:10:53;14.02;;;9.65;;
20619;SDS011;10469;42.720;23.252;2022-09-25T06:13:19;16.63;;;10.07;;
20619;SDS011;10469;42.720;23.252;2022-09-25T06:15:46;21.17;;;10.07;;
20619;SDS011;10469;42.720;23.252;2022-09-25T06:18:15;14.48;;;9.25;;
20619;SDS011;10469;42.720;23.252;2022-09-25T06:20:43;13.02;;;9.05;;
20619;SDS011;10469;42.720;23.252;2022-09-25T06:23:09;13.82;;;9.75;;
20619;SDS011;10469;42.720;23.252;2022-09-25T06:25:34;14.73;;;9.55;;
20619;SDS011;10469;42.720;23.252;2022-09-25T06:28:03;12.13;;;9.23;;
20619;SDS011;10469;42.720;23.252;2022-09-25T06:30:30;15.43;;;9.48;;
20619;SDS011;10469;42.720;23.252;2022-09-25T06:33:08;17.60;;;9.38;;
20619;SDS011;10469;42.720;23.252;2022-09-25T06:35:40;13.25;;;8.07;;
20619;SDS011;10469;42.720;23.252;2022-09-25T06:38:10;10.32;;;9.15;;
20619;SDS011;10469;42.720;23.252;2022-09-25T06:40:36;15.70;;;9.18;;
20619;SDS011;10469;42.720;23.252;2022-09-25T06:43:05;12.07;;;8.77;;
20619;SDS011;10469;42.720;23.252;2022-09-25T06:45:33;13.73;;;8.93;;
20619;SDS011;10469;42.720;23.252;2022-09-25T06:48:03;20.77;;;8.73;;
20619;SDS011;10469;42.720;23.252;2022-09-25T06:50:35;24.00;;;8.18;;
20619;SDS011;10469;42.720;23.252;2022-09-25T06:53:01;15.00;;;8.88;;
20619;SDS011;10469;42.720;23.252;2022-09-25T06:55:27;15.93;;;8.07;;
20619;SDS011;10469;42.720;23.252;2022-09-25T06:57:56;11.52;;;8.68;;
20619;SDS011;10469;42.720;23.252;2022-09-25T07:00:21;13.90;;;8.73;;
20619;SDS011;10469;42.720;23.252;2022-09-25T07:02:47;21.75;;;8.55;;
20619;SDS011;10469;42.720;23.252;2022-09-25T07:05:31;20.02;;;9.05;;
20619;SDS011;10469;42.720;23.252;2022-09-25T07:07:57;13.30;;;7.57;;
20619;SDS011;10469;42.720;23.252;2022-09-25T07:10:23;10.02;;;7.57;;
20619;SDS011;10469;42.720;23.252;2022-09-25T07:12:48;9.95;;;6.97;;
20619;SDS011;10469;42.720;23.252;2022-09-25T07:15:15;18.48;;;8.32;;
20619;SDS011;10469;42.720;23.252;2022-09-25T07:17:44;13.25;;;8.18;;
20619;SDS011;10469;42.720;23.252;2022-09-25T07:20:10;15.88;;;7.43;;
20619;SDS011;10469;42.720;23.252;2022-09-25T07:22:40;9.68;;;7.20;;
20619;SDS011;10469;42.720;23.252;2022-09-25T07:25:06;18.85;;;8.50;;
20619;SDS011;10469;42.720;23.252;2022-09-25T07:27:34;14.40;;;7.32;;
20619;SDS011;10469;42.720;23.252;2022-09-25T07:30:00;14.00;;;6.53;;
20619;SDS011;10469;42.720;23.252;2022-09-25T07:32:28;11.57;;;5.75;;
20619;SDS011;10469;42.720;23.252;2022-09-25T07:34:55;10.80;;;5.13;;
20619;SDS011;10469;42.720;23.252;2022-09-25T07:37:21;13.32;;;6.13;;
20619;SDS011;10469;42.720;23.252;2022-09-25T07:39:47;11.63;;;6.75;;
20619;SDS011;10469;42.720;23.252;2022-09-25T07:42:14;12.68;;;5.70;;
20619;SDS011;10469;42.720;23.252;2022-09-25T07:44:41;14.52;;;6.00;;
20619;SDS011;10469;42.720;23.252;2022-09-25T07:47:07;6.75;;;5.15;;
20619;SDS011;10469;42.720;23.252;2022-09-25T07:49:33;8.43;;;5.10;;
20619;SDS011;10469;42.720;23.252;2022-09-25T07:51:59;9.13;;;4.88;;
20619;SDS011;10469;42.720;23.252;2022-09-25T07:54:25;11.90;;;5.28;;
20619;SDS011;10469;42.720;23.252;2022-09-25T07:56:51;12.10;;;5.25;;
20619;SDS011;10469;42.720;23.252;2022-09-25T07:59:17;6.65;;;4.80;;
20619;SDS011;10469;42.720;23.252;2022-09-25T08:01:42;6.55;;;4.82;;
20619;SDS011;10469;42.720;23.252;2022-09-25T08:04:07;8.52;;;5.05;;
20619;SDS011;10469;42.720;23.252;2022-09-25T08:06:33;8.55;;;6.22;;
20619;SDS011;10469;42.720;23.252;2022-09-25T08:09:02;7.68;;;5.00;;
20619;SDS011;10469;42.720;23.252;2022-09-25T08:11:28;11.13;;;5.40;;
20619;SDS011;10469;42.720;23.252;2022-09-25T08:13:53;7.97;;;4.90;;
20619;SDS011;10469;42.720;23.252;2022-09-25T08:16:19;8.13;;;4.57;;
20619;SDS011;10469;42.720;23.252;2022-09-25T08:18:48;6.97;;;5.00;;
20619;SDS011;10469;42.720;23.252;2022-09-25T08:21:17;9.50;;;4.72;;
20619;SDS011;10469;42.720;23.252;2022-09-25T08:23:48;6.55;;;4.80;;
20619;SDS011;10469;42.720;23.252;2022-09-25T08:26:16;6.38;;;4.93;;
20619;SDS011;10469;42.720;23.252;2022-09-25T08:28:42;13.52;;;5.20;;
20619;SDS011;10469;42.720;23.252;2022-09-25T08:31:08;12.32;;;5.30;;
20619;SDS011;10469;42.720;23.252;2022-09-25T08:33:34;14.15;;;5.82;;
20619;SDS011;10469;42.720;23.252;2022-09-25T08:36:00;10.05;;;5.57;;
20619;SDS011;10469;42.720;23.252;2022-09-25T08:38:27;8.90;;;5.57;;
20619;SDS011;10469;42.720;23.252;2022-09-25T08:40:55;14.68;;;6.43;;
20619;SDS011;10469;42.720;23.252;2022-09-25T08:43:25;14.03;;;6.37;;
20619;SDS011;10469;42.720;23.252;2022-09-25T08:45:52;19.23;;;6.20;;
20619;SDS011;10469;42.720;23.252;2022-09-25T08:51:30;17.38;;;6.20;;
20619;SDS011;10469;42.720;23.252;2022-09-25T08:53:59;12.07;;;5.63;;
20619;SDS011;10469;42.720;23.252;2022-09-25T08:56:27;13.60;;;5.18;;
20619;SDS011;10469;42.720;23.252;2022-09-25T08:59:14;11.93;;;5.30;;
20619;SDS011;10469;42.720;23.252;2022-09-25T09:01:49;7.32;;;4.95;;
20619;SDS011;10469;42.720;23.252;2022-09-25T09:06:51;10.13;;;5.18;;
20619;SDS011;10469;42.720;23.252;2022-09-25T09:09:33;8.68;;;4.90;;
20619;SDS011;10469;42.720;23.252;2022-09-25T09:14:38;12.57;;;5.53;;
20619;SDS011;10469;42.720;23.252;2022-09-25T09:17:14;6.72;;;5.22;;
20619;SDS011;10469;42.720;23.252;2022-09-25T09:19:47;7.28;;;4.90;;
20619;SDS011;10469;42.720;23.252;2022-09-25T09:22:17;7.40;;;5.50;;
20619;SDS011;10469;42.720;23.252;2022-09-25T09:30:22;12.70;;;4.35;;
20619;SDS011;10469;42.720;23.252;2022-09-25T09:41:30;7.15;;;3.92;;
20619;SDS011;10469;42.720;23.252;2022-09-25T09:44:08;5.03;;;3.65;;
20619;SDS011;10469;42.720;23.252;2022-09-25T09:49:56;7.35;;;3.80;;
20619;SDS011;10469;42.720;23.252;2022-09-25T09:52:38;8.48;;;4.13;;
20619;SDS011;10469;42.720;23.252;2022-09-25T09:57:44;10.27;;;3.80;;
20619;SDS011;10469;42.720;23.252;2022-09-25T10:00:16;10.18;;;4.53;;
20619;SDS011;10469;42.720;23.252;2022-09-25T10:05:32;9.40;;;4.82;;
20619;SDS011;10469;42.720;23.252;2022-09-25T10:08:01;6.57;;;3.88;;
20619;SDS011;10469;42.720;23.252;2022-09-25T10:10:37;6.45;;;3.83;;
20619;SDS011;10469;42.720;23.252;2022-09-25T10:13:18;7.95;;;3.90;;
20619;SDS011;10469;42.720;23.252;2022-09-25T10:18:33;4.68;;;3.53;;
20619;SDS011;10469;42.720;23.252;2022-09-25T10:21:15;4.95;;;3.60;;
20619;SDS011;10469;42.720;23.252;2022-09-25T10:29:00;6.35;;;3.53;;
20619;SDS011;10469;42.720;23.252;2022-09-25T10:31:29;4.90;;;3.50;;
20619;SDS011;10469;42.720;23.252;2022-09-25T10:34:01;5.13;;;3.22;;
20619;SDS011;10469;42.720;23.252;2022-09-25T10:36:48;6.93;;;3.17;;
20619;SDS011;10469;42.720;23.252;2022-09-25T10:39:30;4.00;;;3.20;;
20619;SDS011;10469;42.720;23.252;2022-09-25T10:41:58;6.68;;;3.40;;
20619;SDS011;10469;42.720;23.252;2022-09-25T10:46:59;6.97;;;3.28;;
20619;SDS011;10469;42.720;23.252;2022-09-25T10:52:48;3.50;;;3.20;;
20619;SDS011;10469;42.720;23.252;2022-09-25T10:55:21;4.35;;;3.65;;
20619;SDS011;10469;42.720;23.252;2022-09-25T10:57:52;4.18;;;2.92;;
20619;SDS011;10469;42.720;23.252;2022-09-25T11:00:23;4.70;;;3.33;;
20619;SDS011;10469;42.720;23.252;2022-09-25T11:02:51;4.97;;;3.60;;
20619;SDS011;10469;42.720;23.252;2022-09-25T11:05:21;7.20;;;3.53;;
20619;SDS011;10469;42.720;23.252;2022-09-25T11:10:45;6.82;;;3.63;;
20619;SDS011;10469;42.720;23.252;2022-09-25T11:13:19;6.00;;;3.65;;
20619;SDS011;10469;42.720;23.252;2022-09-25T11:15:49;7.47;;;3.67;;
20619;SDS011;10469;42.720;23.252;2022-09-25T11:18:35;6.57;;;3.58;;
20619;SDS011;10469;42.720;23.252;2022-09-25T11:21:04;5.85;;;3.10;;
20619;SDS011;10469;42.720;23.252;2022-09-25T11:26:04;3.67;;;3.10;;
20619;SDS011;10469;42.720;23.252;2022-09-25T11:31:35;4.53;;;3.15;;
20619;SDS011;10469;42.720;23.252;2022-09-25T11:36:59;8.57;;;2.63;;
20619;SDS011;10469;42.720;23.252;2022-09-25T11:39:45;6.25;;;2.67;;
20619;SDS011;10469;42.720;23.252;2022-09-25T11:42:47;7.10;;;2.53;;
20619;SDS011;10469;42.720;23.252;2022-09-25T11:45:21;6.93;;;2.53;;
20619;SDS011;10469;42.720;23.252;2022-09-25T11:48:44;6.38;;;2.45;;
20619;SDS011;10469;42.720;23.252;2022-09-25T12:13:32;3.35;;;2.00;;
20619;SDS011;10469;42.720;23.252;2022-09-25T12:16:25;5.07;;;2.10;;
20619;SDS011;10469;42.720;23.252;2022-09-25T12:19:04;3.40;;;2.10;;
20619;SDS011;10469;42.720;23.252;2022-09-25T12:37:59;3.97;;;1.90;;
20619;SDS011;10469;42.720;23.252;2022-09-25T12:48:34;3.85;;;2.03;;
20619;SDS011;10469;42.720;23.252;2022-09-25T12:51:16;11.13;;;2.20;;
20619;SDS011;10469;42.720;23.252;2022-09-25T12:53:57;4.70;;;2.95;;
20619;SDS011;10469;42.720;23.252;2022-09-25T12:59:28;4.25;;;2.92;;
20619;SDS011;10469;42.720;23.252;2022-09-25T13:04:42;4.68;;;2.42;;
20619;SDS011;10469;42.720;23.252;2022-09-25T13:08:03;5.53;;;2.40;;
20619;SDS011;10469;42.720;23.252;2022-09-25T13:12:55;6.32;;;4.30;;
20619;SDS011;10469;42.720;23.252;2022-09-25T13:15:29;2.65;;;2.30;;
20619;SDS011;10469;42.720;23.252;2022-09-25T13:17:57;5.50;;;2.47;;
20619;SDS011;10469;42.720;23.252;2022-09-25T13:22:55;3.10;;;2.50;;
20619;SDS011;10469;42.720;23.252;2022-09-25T13:28:22;3.40;;;2.10;;
20619;SDS011;10469;42.720;23.252;2022-09-25T13:31:01;8.82;;;3.10;;
20619;SDS011;10469;42.720;23.252;2022-09-25T13:33:52;12.65;;;2.30;;
20619;SDS011;10469;42.720;23.252;2022-09-25T13:41:58;2.33;;;2.08;;
20619;SDS011;10469;42.720;23.252;2022-09-25T14:00:22;3.17;;;2.65;;
20619;SDS011;10469;42.720;23.252;2022-09-25T14:02:50;3.95;;;2.53;;
20619;SDS011;10469;42.720;23.252;2022-09-25T14:05:24;6.53;;;2.38;;
20619;SDS011;10469;42.720;23.252;2022-09-25T14:07:59;4.63;;;2.15;;
20619;SDS011;10469;42.720;23.252;2022-09-25T14:10:32;5.38;;;2.25;;
20619;SDS011;10469;42.720;23.252;2022-09-25T14:12:59;5.32;;;2.40;;
20619;SDS011;10469;42.720;23.252;2022-09-25T14:15:32;7.85;;;2.40;;
20619;SDS011;10469;42.720;23.252;2022-09-25T14:18:01;4.15;;;2.22;;
20619;SDS011;10469;42.720;23.252;2022-09-25T14:23:13;4.18;;;2.60;;
20619;SDS011;10469;42.720;23.252;2022-09-25T14:25:57;3.60;;;2.33;;
20619;SDS011;10469;42.720;23.252;2022-09-25T14:28:31;5.45;;;2.40;;
20619;SDS011;10469;42.720;23.252;2022-09-25T14:33:51;4.70;;;2.55;;
20619;SDS011;10469;42.720;23.252;2022-09-25T14:47:30;4.97;;;2.53;;
20619;SDS011;10469;42.720;23.252;2022-09-25T14:49:59;3.50;;;2.38;;
20619;SDS011;10469;42.720;23.252;2022-09-25T14:52:26;2.65;;;2.45;;
20619;SDS011;10469;42.720;23.252;2022-09-25T14:54:56;2.58;;;2.30;;
20619;SDS011;10469;42.720;23.252;2022-09-25T14:57:28;3.88;;;2.50;;
20619;SDS011;10469;42.720;23.252;2022-09-25T14:59:59;3.10;;;2.45;;
20619;SDS011;10469;42.720;23.252;2022-09-25T15:02:38;3.95;;;2.00;;
20619;SDS011;10469;42.720;23.252;2022-09-25T15:07:52;4.68;;;2.95;;
20619;SDS011;10469;42.720;23.252;2022-09-25T15:10:23;7.80;;;2.50;;
20619;SDS011;10469;42.720;23.252;2022-09-25T15:12:49;4.72;;;3.33;;
20619;SDS011;10469;42.720;23.252;2022-09-25T15:15:15;4.68;;;2.55;;
20619;SDS011;10469;42.720;23.252;2022-09-25T15:17:52;2.45;;;2.25;;
20619;SDS011;10469;42.720;23.252;2022-09-25T15:20:24;2.75;;;2.35;;
20619;SDS011;10469;42.720;23.252;2022-09-25T15:22:56;2.80;;;2.00;;
20619;SDS011;10469;42.720;23.252;2022-09-25T15:25:35;3.92;;;2.60;;
20619;SDS011;10469;42.720;23.252;2022-09-25T15:28:04;6.20;;;2.53;;
20619;SDS011;10469;42.720;23.252;2022-09-25T15:30:31;4.75;;;2.35;;
20619;SDS011;10469;42.720;23.252;2022-09-25T15:32:59;4.88;;;2.30;;
20619;SDS011;10469;42.720;23.252;2022-09-25T15:35:25;3.20;;;2.05;;
20619;SDS011;10469;42.720;23.252;2022-09-25T15:38:02;4.40;;;2.30;;
20619;SDS011;10469;42.720;23.252;2022-09-25T15:40:35;3.83;;;2.17;;
20619;SDS011;10469;42.720;23.252;2022-09-25T15:43:01;2.00;;;1.90;;
20619;SDS011;10469;42.720;23.252;2022-09-25T15:50:53;3.83;;;2.13;;
20619;SDS011;10469;42.720;23.252;2022-09-25T15:53:20;5.45;;;2.88;;
20619;SDS011;10469;42.720;23.252;2022-09-25T15:55:49;3.22;;;2.92;;
20619;SDS011;10469;42.720;23.252;2022-09-25T15:58:24;2.78;;;2.50;;
20619;SDS011;10469;42.720;23.252;2022-09-25T16:00:53;5.35;;;2.40;;
20619;SDS011;10469;42.720;23.252;2022-09-25T16:03:43;7.80;;;2.88;;
20619;SDS011;10469;42.720;23.252;2022-09-25T16:06:35;7.03;;;2.75;;
20619;SDS011;10469;42.720;23.252;2022-09-25T16:09:09;5.93;;;2.72;;
20619;SDS011;10469;42.720;23.252;2022-09-25T16:11:51;3.42;;;2.17;;
20619;SDS011;10469;42.720;23.252;2022-09-25T16:16:53;5.80;;;2.67;;
20619;SDS011;10469;42.720;23.252;2022-09-25T16:21:45;6.03;;;2.80;;
20619;SDS011;10469;42.720;23.252;2022-09-25T16:24:16;2.70;;;2.50;;
20619;SDS011;10469;42.720;23.252;2022-09-25T16:26:51;3.30;;;2.65;;
20619;SDS011;10469;42.720;23.252;2022-09-25T16:29:20;6.63;;;2.95;;
20619;SDS011;10469;42.720;23.252;2022-09-25T16:31:48;4.60;;;3.30;;
20619;SDS011;10469;42.720;23.252;2022-09-25T16:34:22;7.60;;;2.85;;
20619;SDS011;10469;42.720;23.252;2022-09-25T16:36:53;3.10;;;2.67;;
20619;SDS011;10469;42.720;23.252;2022-09-25T16:39:32;8.15;;;2.90;;
20619;SDS011;10469;42.720;23.252;2022-09-25T16:42:46;4.38;;;2.60;;
20619;SDS011;10469;42.720;23.252;2022-09-25T16:45:01;4.50;;;3.00;;
20619;SDS011;10469;42.720;23.252;2022-09-25T16:47:35;4.13;;;3.40;;
20619;SDS011;10469;42.720;23.252;2022-09-25T16:50:00;4.65;;;3.17;;
20619;SDS011;10469;42.720;23.252;2022-09-25T16:52:26;4.10;;;2.78;;
20619;SDS011;10469;42.720;23.252;2022-09-25T16:54:58;6.25;;;2.90;;
20619;SDS011;10469;42.720;23.252;2022-09-25T16:57:25;4.57;;;2.80;;
20619;SDS011;10469;42.720;23.252;2022-09-25T16:59:56;5.00;;;2.80;;
20619;SDS011;10469;42.720;23.252;2022-09-25T17:02:29;4.88;;;3.20;;
20619;SDS011;10469;42.720;23.252;2022-09-25T17:05:03;7.05;;;3.60;;
20619;SDS011;10469;42.720;23.252;2022-09-25T17:07:32;3.13;;;2.83;;
20619;SDS011;10469;42.720;23.252;2022-09-25T17:09:57;6.38;;;3.08;;
20619;SDS011;10469;42.720;23.252;2022-09-25T17:12:25;7.20;;;3.10;;
20619;SDS011;10469;42.720;23.252;2022-09-25T17:14:51;3.67;;;2.80;;
20619;SDS011;10469;42.720;23.252;2022-09-25T17:17:19;5.97;;;3.03;;
20619;SDS011;10469;42.720;23.252;2022-09-25T17:19:46;6.47;;;3.13;;
20619;SDS011;10469;42.720;23.252;2022-09-25T17:22:12;3.63;;;2.70;;
20619;SDS011;10469;42.720;23.252;2022-09-25T17:24:38;4.90;;;3.10;;
20619;SDS011;10469;42.720;23.252;2022-09-25T17:27:08;7.70;;;3.03;;
20619;SDS011;10469;42.720;23.252;2022-09-25T17:29:38;6.00;;;3.10;;
20619;SDS011;10469;42.720;23.252;2022-09-25T17:32:03;17.00;;;3.30;;
20619;SDS011;10469;42.720;23.252;2022-09-25T17:34:29;7.07;;;3.30;;
20619;SDS011;10469;42.720;23.252;2022-09-25T17:36:55;11.05;;;3.90;;
20619;SDS011;10469;42.720;23.252;2022-09-25T17:39:21;7.50;;;3.30;;
20619;SDS011;10469;42.720;23.252;2022-09-25T17:41:47;11.68;;;3.40;;
20619;SDS011;10469;42.720;23.252;2022-09-25T17:44:17;11.73;;;4.07;;
20619;SDS011;10469;42.720;23.252;2022-09-25T17:46:48;9.38;;;3.53;;
20619;SDS011;10469;42.720;23.252;2022-09-25T17:49:14;9.52;;;3.38;;
20619;SDS011;10469;42.720;23.252;2022-09-25T17:51:40;7.15;;;3.33;;
20619;SDS011;10469;42.720;23.252;2022-09-25T17:54:05;10.15;;;3.50;;
20619;SDS011;10469;42.720;23.252;2022-09-25T17:56:31;11.85;;;3.90;;
20619;SDS011;10469;42.720;23.252;2022-09-25T17:58:59;6.78;;;3.30;;
20619;SDS011;10469;42.720;23.252;2022-09-25T18:01:27;5.10;;;3.38;;
20619;SDS011;10469;42.720;23.252;2022-09-25T18:03:59;9.18;;;3.03;;
20619;SDS011;10469;42.720;23.252;2022-09-25T18:06:26;9.27;;;3.30;;